Time;durP1;ratioP1;P1;durP2;ratioP2;P2;SDS_P1;SDS_P2;PMS_P1;PMS_P2;Temp;Humidity;BMP_temperature;BMP_pressure;BME280_temperature;BME280_humidity;BME280_pressure;Samples;Min_cycle;Max_cycle;Signal;HPM_P1;HPM_P2
2023/04/17 00:00:15;;;;;;;4.85;3.40;;;;;;;;;;10032322;29;20102;-85
2023/04/17 00:05:21;;;;;;;4.35;3.35;;;;;;;;;;10048778;29;20048;-88
2023/04/17 00:10:25;;;;;;;4.15;3.33;;;;;;;;;;10049151;29;20097;-85
2023/04/17 00:15:30;;;;;;;4.45;3.28;;;;;;;;;;10024450;29;20060;-88
2023/04/17 00:20:33;;;;;;;4.88;3.50;;;;;;;;;;10033016;29;20049;-87
2023/04/17 00:25:37;;;;;;;4.00;3.38;;;;;;;;;;10031443;29;20057;-85
2023/04/17 00:30:41;;;;;;;4.35;3.35;;;;;;;;;;10047272;29;20132;-86
2023/04/17 00:35:45;;;;;;;6.57;3.75;;;;;;;;;;10029403;29;20144;-85
2023/04/17 00:40:50;;;;;;;4.75;3.65;;;;;;;;;;10029547;29;20038;-85
2023/04/17 00:45:55;;;;;;;7.15;3.65;;;;;;;;;;10046799;29;20080;-85
2023/04/17 00:51:01;;;;;;;5.97;3.42;;;;;;;;;;10031144;29;20042;-85
2023/04/17 00:56:06;;;;;;;4.28;3.00;;;;;;;;;;10030101;29;20113;-86
2023/04/17 01:01:11;;;;;;;5.13;3.50;;;;;;;;;;10030546;29;20052;-85
2023/04/17 01:06:16;;;;;;;4.03;2.83;;;;;;;;;;10031768;29;20444;-85
2023/04/17 01:11:19;;;;;;;4.28;3.38;;;;;;;;;;10028930;29;20144;-85
2023/04/17 01:16:24;;;;;;;4.60;3.38;;;;;;;;;;10020814;29;20049;-88
2023/04/17 01:21:28;;;;;;;6.13;3.53;;;;;;;;;;10027619;29;20073;-85
2023/04/17 01:26:33;;;;;;;5.18;3.80;;;;;;;;;;10042121;29;20835;-85
2023/04/17 01:31:37;;;;;;;4.33;3.47;;;;;;;;;;10027702;29;20787;-85
2023/04/17 01:36:41;;;;;;;4.05;3.38;;;;;;;;;;10028141;29;21000;-88
2023/04/17 01:41:45;;;;;;;5.63;4.20;;;;;;;;;;10027070;29;20053;-85
2023/04/17 01:46:49;;;;;;;5.18;3.50;;;;;;;;;;10025328;29;20484;-88
2023/04/17 01:51:52;;;;;;;4.85;3.33;;;;;;;;;;10030063;29;20594;-86
2023/04/17 01:56:57;;;;;;;4.55;3.35;;;;;;;;;;10041961;29;20056;-88
2023/04/17 02:02:00;;;;;;;3.75;2.80;;;;;;;;;;10026908;29;20128;-86
2023/04/17 02:07:04;;;;;;;3.55;2.97;;;;;;;;;;10026629;29;20582;-86
2023/04/17 02:12:09;;;;;;;4.50;3.03;;;;;;;;;;10028462;29;20133;-86
2023/04/17 02:17:12;;;;;;;4.38;3.35;;;;;;;;;;10041074;29;20098;-86
2023/04/17 02:22:17;;;;;;;6.28;3.38;;;;;;;;;;10027233;29;20499;-85
2023/04/17 02:27:22;;;;;;;3.75;2.97;;;;;;;;;;10025468;29;20056;-86
2023/04/17 02:32:27;;;;;;;4.22;3.80;;;;;;;;;;10026295;29;20144;-88
2023/04/17 02:37:30;;;;;;;4.10;3.30;;;;;;;;;;10035823;29;20128;-87
2023/04/17 02:42:35;;;;;;;3.80;3.05;;;;;;;;;;10026133;29;20065;-86
2023/04/17 02:47:39;;;;;;;3.85;3.05;;;;;;;;;;10019475;29;20072;-88
2023/04/17 02:52:43;;;;;;;3.97;2.97;;;;;;;;;;10026892;29;20818;-86
2023/04/17 02:57:48;;;;;;;4.38;3.53;;;;;;;;;;10027613;29;20064;-86
2023/04/17 03:02:51;;;;;;;4.22;3.22;;;;;;;;;;10047650;29;20124;-87
2023/04/17 03:07:55;;;;;;;3.92;3.20;;;;;;;;;;10024060;29;20423;-87
2023/04/17 03:13:02;;;;;;;4.20;3.08;;;;;;;;;;10042980;29;20101;-86
2023/04/17 03:18:08;;;;;;;3.40;2.80;;;;;;;;;;10027085;29;20038;-86
2023/04/17 03:23:11;;;;;;;3.40;2.67;;;;;;;;;;10041451;29;20049;-84
2023/04/17 03:28:17;;;;;;;3.28;2.63;;;;;;;;;;10014353;29;20059;-84
2023/04/17 03:33:20;;;;;;;3.38;2.70;;;;;;;;;;10018996;29;20065;-84
2023/04/17 03:38:24;;;;;;;2.95;2.58;;;;;;;;;;10019838;29;20148;-84
2023/04/17 03:43:30;;;;;;;3.97;3.10;;;;;;;;;;10025000;29;20046;-83
2023/04/17 03:48:34;;;;;;;4.20;3.38;;;;;;;;;;10025014;29;20079;-83
2023/04/17 03:53:37;;;;;;;3.85;2.97;;;;;;;;;;10024568;29;20042;-83
2023/04/17 03:58:45;;;;;;;3.30;2.95;;;;;;;;;;10039211;29;20060;-83
2023/04/17 04:03:51;;;;;;;3.80;3.15;;;;;;;;;;10028222;29;20546;-82
2023/04/17 04:08:57;;;;;;;9.40;3.22;;;;;;;;;;10029618;29;20073;-83
2023/04/17 04:14:01;;;;;;;3.10;2.78;;;;;;;;;;10024652;29;20128;-83
2023/04/17 04:19:06;;;;;;;4.68;3.22;;;;;;;;;;10023741;29;20073;-83
2023/04/17 04:24:12;;;;;;;6.55;3.88;;;;;;;;;;10024222;29;20046;-83
2023/04/17 04:29:24;;;;;;;4.78;3.38;;;;;;;;;;10021295;29;20049;-84
2023/04/17 04:34:40;;;;;;;4.00;3.15;;;;;;;;;;10016816;29;20054;-83
2023/04/17 04:39:46;;;;;;;4.15;3.38;;;;;;;;;;10042197;29;20723;-86
2023/04/17 04:44:52;;;;;;;4.78;3.33;;;;;;;;;;10031980;29;20053;-90
2023/04/17 04:49:57;;;;;;;4.07;3.30;;;;;;;;;;10032578;29;20042;-90
2023/04/17 04:55:01;;;;;;;4.18;3.53;;;;;;;;;;10032298;29;20170;-85
2023/04/17 05:00:10;;;;;;;4.45;3.28;;;;;;;;;;10031014;29;20046;-90
2023/04/17 05:05:21;;;;;;;4.30;3.22;;;;;;;;;;10031277;29;20140;-88
2023/04/17 05:10:25;;;;;;;4.35;3.15;;;;;;;;;;10032310;29;20056;-86
2023/04/17 05:15:35;;;;;;;4.35;3.25;;;;;;;;;;10031009;29;20137;-84
2023/04/17 05:20:39;;;;;;;5.45;3.90;;;;;;;;;;10047124;29;20137;-85
2023/04/17 05:25:44;;;;;;;6.50;3.65;;;;;;;;;;10029802;29;20412;-84
2023/04/17 05:30:49;;;;;;;4.55;3.55;;;;;;;;;;10032200;29;20102;-85
2023/04/17 05:36:00;;;;;;;4.55;3.25;;;;;;;;;;10036261;29;20052;-85
2023/04/17 05:41:06;;;;;;;5.47;3.90;;;;;;;;;;10030978;29;20084;-86
2023/04/17 05:46:10;;;;;;;5.05;4.18;;;;;;;;;;10029279;29;20097;-86
2023/04/17 05:51:18;;;;;;;7.65;5.35;;;;;;;;;;10046249;29;20136;-85
2023/04/17 05:56:22;;;;;;;8.38;5.82;;;;;;;;;;10055230;29;20149;-85
2023/04/17 06:01:28;;;;;;;9.40;5.60;;;;;;;;;;10123551;23;20116;-82
2023/04/17 06:06:31;;;;;;;7.72;5.85;;;;;;;;;;10118791;29;20139;-82
2023/04/17 06:11:35;;;;;;;10.18;6.93;;;;;;;;;;10064476;29;20041;-83
2023/04/17 06:16:40;;;;;;;9.50;6.57;;;;;;;;;;10058625;29;20100;-85
2023/04/17 06:21:44;;;;;;;10.23;5.80;;;;;;;;;;10061531;29;20047;-85
2023/04/17 06:26:48;;;;;;;8.63;6.15;;;;;;;;;;10060117;29;20064;-85
2023/04/17 06:31:52;;;;;;;7.80;5.72;;;;;;;;;;10060881;29;20056;-85
2023/04/17 06:36:57;;;;;;;6.22;5.03;;;;;;;;;;10060717;29;20048;-85
2023/04/17 06:42:01;;;;;;;8.30;5.15;;;;;;;;;;10060966;29;20041;-85
2023/04/17 06:47:13;;;;;;;7.55;5.03;;;;;;;;;;10057429;29;20771;-85
2023/04/17 06:52:18;;;;;;;6.97;4.72;;;;;;;;;;10057790;29;20045;-85
2023/04/17 06:57:22;;;;;;;6.80;5.37;;;;;;;;;;10057774;29;20064;-85
2023/04/17 07:02:27;;;;;;;7.70;5.55;;;;;;;;;;10054721;29;20060;-86
2023/04/17 07:07:33;;;;;;;10.02;6.53;;;;;;;;;;10075007;29;20053;-87
2023/04/17 07:12:36;;;;;;;9.10;6.22;;;;;;;;;;10066016;29;20037;-85
2023/04/17 07:17:41;;;;;;;9.10;6.68;;;;;;;;;;10062992;29;20550;-85
2023/04/17 07:22:45;;;;;;;7.00;5.40;;;;;;;;;;10065233;29;20076;-85
2023/04/17 07:27:49;;;;;;;8.13;5.88;;;;;;;;;;10064698;29;20060;-84
2023/04/17 07:32:53;;;;;;;9.48;6.15;;;;;;;;;;10064301;29;20430;-85
2023/04/17 07:38:00;;;;;;;7.45;5.75;;;;;;;;;;10078402;29;20128;-86
2023/04/17 07:43:03;;;;;;;7.47;4.93;;;;;;;;;;10062960;29;20037;-84
2023/04/17 07:48:09;;;;;;;10.63;6.75;;;;;;;;;;10082309;29;20059;-86
2023/04/17 07:53:12;;;;;;;8.05;5.97;;;;;;;;;;10079886;29;20049;-87
2023/04/17 07:58:15;;;;;;;9.23;7.13;;;;;;;;;;10074134;29;20706;-88
2023/04/17 08:03:22;;;;;;;9.10;6.82;;;;;;;;;;10073175;29;20045;-89
2023/04/17 08:08:26;;;;;;;10.02;7.18;;;;;;;;;;10105672;29;20060;-86
2023/04/17 08:13:31;;;;;;;7.03;4.93;;;;;;;;;;10080027;29;20627;-87
2023/04/17 08:18:36;;;;;;;6.35;4.78;;;;;;;;;;10070667;29;20053;-86
2023/04/17 08:23:40;;;;;;;6.37;4.87;;;;;;;;;;10071730;29;20144;-86
2023/04/17 08:28:44;;;;;;;9.20;5.78;;;;;;;;;;10070860;29;20068;-86
2023/04/17 08:33:49;;;;;;;8.45;5.40;;;;;;;;;;10079687;29;20077;-87
2023/04/17 08:38:53;;;;;;;7.37;4.97;;;;;;;;;;10087911;29;20071;-85
2023/04/17 08:43:59;;;;;;;9.55;5.97;;;;;;;;;;10091642;29;20127;-86
2023/04/17 08:49:04;;;;;;;7.33;5.30;;;;;;;;;;10086451;29;20052;-86
2023/04/17 08:54:08;;;;;;;7.57;5.33;;;;;;;;;;10070820;29;20317;-86
2023/04/17 08:59:11;;;;;;;9.65;6.63;;;;;;;;;;10072025;29;20316;-87
2023/04/17 09:04:38;;;;;;;6.25;4.78;;;;;;;;;;10074378;29;20072;-86
2023/04/17 09:09:52;;;;;;;7.50;4.88;;;;;;;;;;10081593;29;20053;-86
2023/04/17 09:14:55;;;;;;;5.72;4.72;;;;;;;;;;10080810;29;20040;-85
2023/04/17 09:20:07;;;;;;;7.45;5.38;;;;;;;;;;10111094;29;20045;-87
2023/04/17 09:25:17;;;;;;;6.35;4.75;;;;;;;;;;10074147;29;20426;-87
2023/04/17 09:30:21;;;;;;;7.90;5.05;;;;;;;;;;10082433;29;20049;-86
2023/04/17 09:35:26;;;;;;;5.50;4.35;;;;;;;;;;10072412;29;20060;-85
2023/04/17 09:40:38;;;;;;;6.32;4.28;;;;;;;;;;10071599;29;20129;-84
2023/04/17 09:45:43;;;;;;;8.60;5.88;;;;;;;;;;10065610;29;20137;-83
2023/04/17 09:50:49;;;;;;;10.88;7.50;;;;;;;;;;10064624;29;20049;-83
2023/04/17 09:55:54;;;;;;;8.45;4.95;;;;;;;;;;10058610;29;20778;-84
2023/04/17 10:00:57;;;;;;;7.28;5.32;;;;;;;;;;10058783;29;20458;-83
2023/04/17 10:06:02;;;;;;;7.50;5.32;;;;;;;;;;10083375;29;20040;-83
2023/04/17 10:11:07;;;;;;;7.72;5.50;;;;;;;;;;10067796;29;20053;-86
2023/04/17 10:16:10;;;;;;;7.32;5.97;;;;;;;;;;10069431;29;20045;-85
2023/04/17 10:21:24;;;;;;;5.70;4.25;;;;;;;;;;10059918;29;20716;-85
2023/04/17 10:26:45;;;;;;;4.90;4.00;;;;;;;;;;10056319;29;20045;-83
2023/04/17 10:32:17;;;;;;;6.15;4.30;;;;;;;;;;10060028;29;20069;-82
2023/04/17 10:37:24;;;;;;;6.13;4.95;;;;;;;;;;10039755;29;20097;-82
2023/04/17 10:42:31;;;;;;;7.38;5.35;;;;;;;;;;10056523;29;20044;-83
2023/04/17 10:47:36;;;;;;;7.22;4.38;;;;;;;;;;10064171;29;20065;-82
2023/04/17 10:52:43;;;;;;;4.70;3.10;;;;;;;;;;10068735;29;20128;-84
2023/04/17 10:57:59;;;;;;;3.22;2.78;;;;;;;;;;10083839;29;20088;-84
2023/04/17 11:03:04;;;;;;;6.63;2.70;;;;;;;;;;10066284;29;20139;-84
2023/04/17 11:08:10;;;;;;;4.18;3.10;;;;;;;;;;10065029;29;20047;-83
2023/04/17 11:13:14;;;;;;;;;;;;;;;;;;10066053;29;20049;-84
2023/04/17 11:18:20;;;;;;;3.80;2.85;;;;;;;;;;10086281;29;19932;-84
2023/04/17 11:23:32;;;;;;;4.20;3.23;;;;;;;;;;10078102;29;20041;-84
2023/04/17 11:28:37;;;;;;;3.10;2.15;;;;;;;;;;10084719;29;20449;-84
2023/04/17 11:33:41;;;;;;;5.45;3.67;;;;;;;;;;10085592;29;20519;-84
2023/04/17 11:38:48;;;;;;;4.25;2.88;;;;;;;;;;10084899;29;20056;-86
2023/04/17 11:43:52;;;;;;;3.10;2.45;;;;;;;;;;10093799;29;20487;-85
2023/04/17 11:48:55;;;;;;;2.88;2.15;;;;;;;;;;10093038;29;20064;-83
2023/04/17 11:54:00;;;;;;;2.83;2.20;;;;;;;;;;10063644;29;20048;-84
2023/04/17 12:04:29;;;;;;;2.58;2.10;;;;;;;;;;10009409;29;20531;-84
2023/04/17 12:09:35;;;;;;;2.67;1.97;;;;;;;;;;10050701;29;20106;-83
2023/04/17 12:14:39;;;;;;;2.17;1.75;;;;;;;;;;10048013;29;20088;-86
2023/04/17 12:19:45;;;;;;;2.25;1.88;;;;;;;;;;10048271;29;20136;-90
2023/04/17 12:24:53;;;;;;;2.78;2.10;;;;;;;;;;10066482;29;20053;-83
2023/04/17 12:29:56;;;;;;;3.38;2.25;;;;;;;;;;10074504;29;20088;-83
2023/04/17 12:35:00;;;;;;;3.47;1.73;;;;;;;;;;10030967;29;20113;-84
2023/04/17 12:40:06;;;;;;;2.55;1.38;;;;;;;;;;10070329;29;20053;-84
2023/04/17 12:45:10;;;;;;;2.58;1.80;;;;;;;;;;10056961;29;20053;-84
2023/04/17 12:50:14;;;;;;;3.17;2.40;;;;;;;;;;10065141;29;20056;-83
2023/04/17 12:55:19;;;;;;;2.72;1.77;;;;;;;;;;10072899;29;20127;-83
2023/04/17 13:00:23;;;;;;;2.90;1.73;;;;;;;;;;10070208;29;20749;-84
2023/04/17 13:05:27;;;;;;;2.40;1.75;;;;;;;;;;10040422;29;20136;-83
2023/04/17 13:10:33;;;;;;;3.10;2.35;;;;;;;;;;10065443;29;20049;-83
2023/04/17 13:15:36;;;;;;;1.75;1.50;;;;;;;;;;10046052;29;20697;-84
2023/04/17 13:20:40;;;;;;;1.20;1.10;;;;;;;;;;10040193;29;20228;-84
2023/04/17 13:25:45;;;;;;;1.70;1.40;;;;;;;;;;10062762;29;20049;-84
2023/04/17 13:30:48;;;;;;;1.20;1.10;;;;;;;;;;10049680;29;20109;-83
2023/04/17 13:35:52;;;;;;;1.88;1.45;;;;;;;;;;10063533;29;20045;-84
2023/04/17 13:40:57;;;;;;;1.92;1.30;;;;;;;;;;10076643;29;20480;-83
2023/04/17 13:46:01;;;;;;;1.63;1.48;;;;;;;;;;10059160;29;20128;-83
2023/04/17 13:51:04;;;;;;;2.22;1.83;;;;;;;;;;10058078;29;20056;-84
2023/04/17 13:56:09;;;;;;;2.33;1.40;;;;;;;;;;10046884;29;20063;-86
2023/04/17 14:01:13;;;;;;;2.80;1.60;;;;;;;;;;10074650;29;20406;-89
2023/04/17 14:06:19;;;;;;;2.60;1.75;;;;;;;;;;10059903;29;20045;-88
2023/04/17 14:11:25;;;;;;;1.85;1.70;;;;;;;;;;10059761;29;20053;-86
2023/04/17 14:16:28;;;;;;;1.90;1.50;;;;;;;;;;10050802;29;20053;-87
2023/04/17 14:21:32;;;;;;;3.80;1.67;;;;;;;;;;10057023;29;20057;-86
2023/04/17 14:26:37;;;;;;;2.10;1.55;;;;;;;;;;10069288;29;20108;-87
2023/04/17 14:31:41;;;;;;;2.10;1.40;;;;;;;;;;10043271;29;20499;-88
2023/04/17 14:36:44;;;;;;;3.15;1.38;;;;;;;;;;10059013;29;20060;-87
2023/04/17 14:41:49;;;;;;;1.95;1.60;;;;;;;;;;10051295;29;20051;-86
2023/04/17 14:46:53;;;;;;;4.53;1.50;;;;;;;;;;10058950;29;20088;-86
2023/04/17 14:51:56;;;;;;;2.28;1.60;;;;;;;;;;10064081;29;20049;-90
2023/04/17 14:57:01;;;;;;;3.50;1.65;;;;;;;;;;10047790;29;20050;-87
2023/04/17 15:02:05;;;;;;;2.22;1.52;;;;;;;;;;10044818;29;20053;-87
2023/04/17 15:07:09;;;;;;;1.88;1.42;;;;;;;;;;10053597;29;20038;-91
2023/04/17 15:12:14;;;;;;;2.70;1.70;;;;;;;;;;10064829;29;20554;-86
2023/04/17 15:17:17;;;;;;;1.70;1.58;;;;;;;;;;10044780;29;20788;-88
2023/04/17 15:22:21;;;;;;;1.45;1.30;;;;;;;;;;10057359;29;20037;-89
2023/04/17 15:27:26;;;;;;;1.38;1.10;;;;;;;;;;10055431;29;20044;-87
2023/04/17 15:32:29;;;;;;;1.58;1.10;;;;;;;;;;10059314;29;20053;-87
2023/04/17 15:37:33;;;;;;;2.45;1.40;;;;;;;;;;10049417;29;20045;-85
2023/04/17 15:42:37;;;;;;;5.22;1.65;;;;;;;;;;10054611;29;20045;-84
2023/04/17 15:47:41;;;;;;;2.03;1.48;;;;;;;;;;10044987;29;20052;-84
2023/04/17 15:52:44;;;;;;;2.33;1.63;;;;;;;;;;10055958;29;20053;-86
2023/04/17 15:57:49;;;;;;;2.60;1.75;;;;;;;;;;10060105;29;20120;-86
2023/04/17 16:02:52;;;;;;;2.28;1.42;;;;;;;;;;10068083;29;20425;-85
2023/04/17 16:07:55;;;;;;;1.80;1.25;;;;;;;;;;10069180;29;20414;-85
2023/04/17 16:13:00;;;;;;;2.08;1.63;;;;;;;;;;10060850;29;20419;-84
2023/04/17 16:18:06;;;;;;;;;;;;;;;;;;10041309;29;20049;-85
2023/04/17 16:23:09;;;;;;;2.90;1.90;;;;;;;;;;10051725;29;20364;-84
2023/04/17 16:28:14;;;;;;;3.42;2.10;;;;;;;;;;10031324;29;20061;-82
2023/04/17 16:33:17;;;;;;;2.75;1.90;;;;;;;;;;10052889;29;20045;-82
2023/04/17 16:38:20;;;;;;;2.50;2.00;;;;;;;;;;10031795;29;20083;-82
2023/04/17 16:43:26;;;;;;;2.80;1.45;;;;;;;;;;10050898;29;20057;-82
2023/04/17 16:48:29;;;;;;;2.77;1.70;;;;;;;;;;10047705;29;20048;-86
2023/04/17 16:53:33;;;;;;;4.68;1.63;;;;;;;;;;10061619;29;20045;-86
2023/04/17 16:58:38;;;;;;;1.92;1.50;;;;;;;;;;10049582;29;20044;-86
2023/04/17 17:03:43;;;;;;;2.90;1.80;;;;;;;;;;10038401;29;20522;-86
2023/04/17 17:08:47;;;;;;;1.87;1.70;;;;;;;;;;10032578;29;20197;-86
2023/04/17 17:13:52;;;;;;;3.15;1.55;;;;;;;;;;10038048;29;20651;-85
2023/04/17 17:18:56;;;;;;;2.08;1.52;;;;;;;;;;10035753;29;20581;-85
2023/04/17 17:24:02;;;;;;;2.40;1.60;;;;;;;;;;10058217;29;20049;-86
2023/04/17 17:29:06;;;;;;;2.20;1.23;;;;;;;;;;10067890;29;20080;-86
2023/04/17 17:34:10;;;;;;;2.22;1.30;;;;;;;;;;10054092;29;20041;-85
2023/04/17 17:39:25;;;;;;;1.80;1.50;;;;;;;;;;10066899;29;20052;-86
2023/04/17 17:44:31;;;;;;;2.20;1.40;;;;;;;;;;10066111;29;20065;-86
2023/04/17 17:49:35;;;;;;;2.80;1.55;;;;;;;;;;10054146;29;20045;-86
2023/04/17 17:54:39;;;;;;;1.88;1.23;;;;;;;;;;10062442;29;20131;-85
2023/04/17 17:59:44;;;;;;;2.25;1.40;;;;;;;;;;10105441;23;20054;-82
2023/04/17 18:04:48;;;;;;;1.27;1.17;;;;;;;;;;10094776;29;20063;-82
2023/04/17 18:09:51;;;;;;;3.38;1.42;;;;;;;;;;10081608;29;20510;-81
2023/04/17 18:14:57;;;;;;;2.22;1.40;;;;;;;;;;10074290;29;20278;-81
2023/04/17 18:20:01;;;;;;;2.30;1.80;;;;;;;;;;10057306;29;20045;-82
2023/04/17 18:25:06;;;;;;;4.13;2.55;;;;;;;;;;10073871;29;20053;-81
2023/04/17 18:30:13;;;;;;;1.67;1.58;;;;;;;;;;10071778;29;20045;-82
2023/04/17 18:35:17;;;;;;;1.77;1.52;;;;;;;;;;10055858;29;20075;-82
2023/04/17 18:40:20;;;;;;;1.95;1.75;;;;;;;;;;10058457;29;20053;-82
2023/04/17 18:45:25;;;;;;;1.88;1.35;;;;;;;;;;10055045;29;20174;-82
2023/04/17 18:50:29;;;;;;;2.22;1.50;;;;;;;;;;10061594;29;20063;-81
2023/04/17 18:55:34;;;;;;;1.92;1.63;;;;;;;;;;10060561;29;20049;-81
2023/04/17 19:00:38;;;;;;;2.95;1.88;;;;;;;;;;10060840;29;20041;-82
2023/04/17 19:05:42;;;;;;;2.90;1.75;;;;;;;;;;10058450;29;20052;-82
2023/04/17 19:10:45;;;;;;;1.90;1.33;;;;;;;;;;10065510;29;20045;-81
2023/04/17 19:15:50;;;;;;;4.15;1.60;;;;;;;;;;10090764;29;20037;-81
2023/04/17 19:20:56;;;;;;;2.20;1.50;;;;;;;;;;10081398;29;20700;-81
2023/04/17 19:25:59;;;;;;;2.22;1.50;;;;;;;;;;10096485;29;20167;-80
2023/04/17 19:31:05;;;;;;;3.63;1.77;;;;;;;;;;10084352;29;20057;-80
2023/04/17 19:36:08;;;;;;;2.20;1.77;;;;;;;;;;10100030;29;20033;-81
2023/04/17 19:41:16;;;;;;;3.40;1.85;;;;;;;;;;10103433;29;20480;-81
2023/04/17 19:46:24;;;;;;;3.35;2.13;;;;;;;;;;10102321;29;20045;-80
2023/04/17 19:51:28;;;;;;;3.70;1.90;;;;;;;;;;10095226;29;20037;-81
2023/04/17 19:56:32;;;;;;;3.42;2.33;;;;;;;;;;10088761;29;20057;-81
2023/04/17 20:01:36;;;;;;;6.57;2.10;;;;;;;;;;10080732;29;20051;-82
2023/04/17 20:06:40;;;;;;;2.90;2.13;;;;;;;;;;10087209;29;20136;-82
2023/04/17 20:11:43;;;;;;;4.07;2.67;;;;;;;;;;10093393;29;20044;-84
2023/04/17 20:16:48;;;;;;;5.53;3.20;;;;;;;;;;10070717;29;20045;-84
2023/04/17 20:21:52;;;;;;;3.90;2.67;;;;;;;;;;10089389;29;20096;-85
2023/04/17 20:26:56;;;;;;;6.20;3.13;;;;;;;;;;10077739;29;20047;-84
2023/04/17 20:32:01;;;;;;;3.65;2.40;;;;;;;;;;10072937;29;20105;-85
2023/04/17 20:37:07;;;;;;;3.20;2.37;;;;;;;;;;10071751;29;20047;-84
2023/04/17 20:42:12;;;;;;;2.85;2.20;;;;;;;;;;10087956;29;20060;-86
2023/04/17 20:47:19;;;;;;;2.80;2.22;;;;;;;;;;10066776;29;20087;-85
2023/04/17 20:52:25;;;;;;;3.22;2.58;;;;;;;;;;10082945;29;20511;-83
2023/04/17 20:57:31;;;;;;;5.25;2.72;;;;;;;;;;10081737;29;20474;-85
2023/04/17 21:02:35;;;;;;;5.63;2.83;;;;;;;;;;10084492;29;20785;-84
2023/04/17 21:07:39;;;;;;;3.03;2.47;;;;;;;;;;10087524;29;20101;-82
2023/04/17 21:12:42;;;;;;;4.53;3.17;;;;;;;;;;10091981;29;20053;-83
2023/04/17 21:17:47;;;;;;;6.88;3.90;;;;;;;;;;10073536;29;20510;-84
2023/04/17 21:22:52;;;;;;;4.00;3.40;;;;;;;;;;10091140;29;20073;-83
2023/04/17 21:27:56;;;;;;;4.00;3.03;;;;;;;;;;10090657;29;20033;-84
2023/04/17 21:33:00;;;;;;;4.95;3.40;;;;;;;;;;10078180;29;20045;-83
2023/04/17 21:38:04;;;;;;;4.53;3.45;;;;;;;;;;10073793;29;20064;-83
2023/04/17 21:43:08;;;;;;;4.68;3.42;;;;;;;;;;10079306;29;20055;-83
2023/04/17 21:48:14;;;;;;;5.25;3.03;;;;;;;;;;10073669;29;20144;-84
2023/04/17 21:53:20;;;;;;;4.65;3.17;;;;;;;;;;10084303;29;20056;-82
2023/04/17 21:58:23;;;;;;;4.73;3.17;;;;;;;;;;10081823;29;20041;-82
2023/04/17 22:03:28;;;;;;;5.47;3.13;;;;;;;;;;10080758;29;20083;-82
2023/04/17 22:08:35;;;;;;;3.35;2.65;;;;;;;;;;10071412;29;20056;-82
2023/04/17 22:13:39;;;;;;;4.28;2.97;;;;;;;;;;10084022;29;20135;-82
2023/04/17 22:18:43;;;;;;;4.35;2.80;;;;;;;;;;10093291;29;20069;-82
2023/04/17 22:23:47;;;;;;;4.07;3.08;;;;;;;;;;10073206;29;20091;-82
2023/04/17 22:28:53;;;;;;;4.35;3.17;;;;;;;;;;10072314;29;20140;-82
2023/04/17 22:34:00;;;;;;;3.80;2.77;;;;;;;;;;10075120;29;20530;-82
2023/04/17 22:39:07;;;;;;;4.72;3.00;;;;;;;;;;10072259;29;20117;-82
2023/04/17 22:44:16;;;;;;;5.47;3.30;;;;;;;;;;10074724;29;20524;-81
2023/04/17 22:49:20;;;;;;;4.23;2.80;;;;;;;;;;10102187;29;20053;-82
2023/04/17 22:54:24;;;;;;;6.78;2.95;;;;;;;;;;10103190;29;20052;-82
2023/04/17 22:59:27;;;;;;;5.85;3.35;;;;;;;;;;10086107;29;20093;-82
2023/04/17 23:04:32;;;;;;;4.53;3.47;;;;;;;;;;10089121;29;20060;-82
2023/04/17 23:09:35;;;;;;;4.97;3.80;;;;;;;;;;10083498;29;20061;-81
2023/04/17 23:14:42;;;;;;;5.13;3.55;;;;;;;;;;10092530;29;20048;-81
2023/04/17 23:19:46;;;;;;;4.13;2.95;;;;;;;;;;10094895;29;20384;-81
2023/04/17 23:24:52;;;;;;;4.45;3.10;;;;;;;;;;10105692;29;20657;-81
2023/04/17 23:29:55;;;;;;;6.32;3.95;;;;;;;;;;10092643;29;20037;-81
2023/04/17 23:34:59;;;;;;;4.60;3.60;;;;;;;;;;10109552;29;20040;-82
2023/04/17 23:40:03;;;;;;;5.15;3.67;;;;;;;;;;10089992;29;20041;-83
2023/04/17 23:45:08;;;;;;;5.45;3.67;;;;;;;;;;10105506;29;20073;-82
2023/04/17 23:50:13;;;;;;;5.07;3.65;;;;;;;;;;10087958;29;20077;-82
2023/04/17 23:55:16;;;;;;;6.20;4.00;;;;;;;;;;10105744;29;20057;-82
